sensor_id;sensor_type;location;lat;lon;timestamp;pressure;altitude;pressure_sealevel;temperature;humidity
54808;BME280;40708;50.364;7.550;2023-07-08T00:00:44;100491.09;;;19.03;100.00
54808;BME280;40708;50.364;7.550;2023-07-08T00:03:16;100500.44;;;18.92;100.00
54808;BME280;40708;50.364;7.550;2023-07-08T00:05:42;100500.78;;;18.81;100.00
54808;BME280;40708;50.364;7.550;2023-07-08T00:08:13;100506.34;;;18.77;100.00
54808;BME280;40708;50.364;7.550;2023-07-08T00:10:38;100506.50;;;18.72;100.00
54808;BME280;40708;50.364;7.550;2023-07-08T00:13:03;100502.31;;;18.62;100.00
54808;BME280;40708;50.364;7.550;2023-07-08T00:15:32;100505.88;;;18.63;100.00
54808;BME280;40708;50.364;7.550;2023-07-08T00:18:01;100505.88;;;18.63;100.00
54808;BME280;40708;50.364;7.550;2023-07-08T00:20:40;100502.56;;;18.55;100.00
54808;BME280;40708;50.364;7.550;2023-07-08T00:23:08;100507.22;;;18.48;100.00
54808;BME280;40708;50.364;7.550;2023-07-08T00:25:34;100514.50;;;18.43;100.00
54808;BME280;40708;50.364;7.550;2023-07-08T00:27:59;100512.91;;;18.37;100.00
54808;BME280;40708;50.364;7.550;2023-07-08T00:30:29;100513.88;;;18.35;100.00
54808;BME280;40708;50.364;7.550;2023-07-08T00:32:56;100522.97;;;18.31;100.00
54808;BME280;40708;50.364;7.550;2023-07-08T00:35:22;100514.06;;;18.29;100.00
54808;BME280;40708;50.364;7.550;2023-07-08T00:37:50;100516.75;;;18.29;100.00
54808;BME280;40708;50.364;7.550;2023-07-08T00:40:21;100511.47;;;18.26;100.00
54808;BME280;40708;50.364;7.550;2023-07-08T00:42:48;100512.41;;;18.25;100.00
54808;BME280;40708;50.364;7.550;2023-07-08T00:45:28;100511.41;;;18.29;100.00
54808;BME280;40708;50.364;7.550;2023-07-08T00:48:18;100511.47;;;18.26;100.00
54808;BME280;40708;50.364;7.550;2023-07-08T00:50:44;100510.84;;;18.16;100.00
54808;BME280;40708;50.364;7.550;2023-07-08T00:55:55;100521.88;;;18.07;100.00
54808;BME280;40708;50.364;7.550;2023-07-08T00:58:23;100525.50;;;18.05;100.00
54808;BME280;40708;50.364;7.550;2023-07-08T01:00:51;100534.44;;;18.05;100.00
54808;BME280;40708;50.364;7.550;2023-07-08T01:03:18;100537.34;;;17.98;100.00
54808;BME280;40708;50.364;7.550;2023-07-08T01:05:46;100539.28;;;17.93;100.00
54808;BME280;40708;50.364;7.550;2023-07-08T01:08:12;100543.84;;;17.89;100.00
54808;BME280;40708;50.364;7.550;2023-07-08T01:10:43;100552.84;;;17.88;100.00
54808;BME280;40708;50.364;7.550;2023-07-08T01:13:13;100545.75;;;17.85;100.00
54808;BME280;40708;50.364;7.550;2023-07-08T01:15:43;100548.53;;;17.82;100.00
54808;BME280;40708;50.364;7.550;2023-07-08T01:18:09;100545.75;;;17.85;100.00
54808;BME280;40708;50.364;7.550;2023-07-08T01:20:37;100545.00;;;17.80;100.00
54808;BME280;40708;50.364;7.550;2023-07-08T01:23:02;100548.63;;;17.79;100.00
54808;BME280;40708;50.364;7.550;2023-07-08T01:25:30;100562.94;;;17.78;100.00
54808;BME280;40708;50.364;7.550;2023-07-08T01:27:56;100549.66;;;17.74;100.00
54808;BME280;40708;50.364;7.550;2023-07-08T01:30:22;100558.63;;;17.73;100.00
54808;BME280;40708;50.364;7.550;2023-07-08T01:32:50;100565.91;;;17.68;100.00
54808;BME280;40708;50.364;7.550;2023-07-08T01:35:17;100585.88;;;17.56;100.00
54808;BME280;40708;50.364;7.550;2023-07-08T01:37:47;100589.56;;;17.52;100.00
54808;BME280;40708;50.364;7.550;2023-07-08T01:42:40;100588.81;;;17.46;100.00
54808;BME280;40708;50.364;7.550;2023-07-08T01:45:17;100583.53;;;17.43;100.00
54808;BME280;40708;50.364;7.550;2023-07-08T01:47:49;100574.59;;;17.42;100.00
54808;BME280;40708;50.364;7.550;2023-07-08T01:50:15;100572.84;;;17.41;100.00
54808;BME280;40708;50.364;7.550;2023-07-08T01:52:41;100565.63;;;17.43;100.00
54808;BME280;40708;50.364;7.550;2023-07-08T01:55:07;100561.28;;;17.39;100.00
54808;BME280;40708;50.364;7.550;2023-07-08T01:57:32;100566.81;;;17.32;100.00
54808;BME280;40708;50.364;7.550;2023-07-08T01:59:58;100565.22;;;17.24;100.00
54808;BME280;40708;50.364;7.550;2023-07-08T02:02:24;100573.47;;;17.15;100.00
54808;BME280;40708;50.364;7.550;2023-07-08T02:04:49;100573.59;;;17.11;100.00
54808;BME280;40708;50.364;7.550;2023-07-08T02:07:15;100570.03;;;17.10;100.00
54808;BME280;40708;50.364;7.550;2023-07-08T02:09:40;100570.22;;;17.03;100.00
54808;BME280;40708;50.364;7.550;2023-07-08T02:12:05;100580.13;;;17.01;100.00
54808;BME280;40708;50.364;7.550;2023-07-08T02:14:31;100579.03;;;17.08;100.00
54808;BME280;40708;50.364;7.550;2023-07-08T02:16:56;100590.53;;;17.13;100.00
54808;BME280;40708;50.364;7.550;2023-07-08T02:19:21;100603.72;;;17.22;100.00
54808;BME280;40708;50.364;7.550;2023-07-08T02:21:47;100596.66;;;17.18;100.00
54808;BME280;40708;50.364;7.550;2023-07-08T02:24:12;100595.81;;;17.17;100.00
54808;BME280;40708;50.364;7.550;2023-07-08T02:26:37;100587.78;;;17.16;100.00
54808;BME280;40708;50.364;7.550;2023-07-08T02:29:03;100588.78;;;17.12;100.00
54808;BME280;40708;50.364;7.550;2023-07-08T02:31:28;100595.06;;;17.11;100.00
54808;BME280;40708;50.364;7.550;2023-07-08T02:33:54;100606.63;;;17.13;100.00
54808;BME280;40708;50.364;7.550;2023-07-08T02:36:20;100610.25;;;17.10;100.00
54808;BME280;40708;50.364;7.550;2023-07-08T02:38:45;100606.88;;;17.02;100.00
54808;BME280;40708;50.364;7.550;2023-07-08T02:41:11;100601.69;;;16.95;100.00
54808;BME280;40708;50.364;7.550;2023-07-08T02:43:39;100625.94;;;16.89;100.00
54808;BME280;40708;50.364;7.550;2023-07-08T02:46:05;100628.75;;;16.83;100.00
54808;BME280;40708;50.364;7.550;2023-07-08T02:48:30;100631.53;;;16.78;100.00
54808;BME280;40708;50.364;7.550;2023-07-08T02:51:03;100627.09;;;16.77;100.00
54808;BME280;40708;50.364;7.550;2023-07-08T02:53:29;100632.50;;;16.76;100.00
54808;BME280;40708;50.364;7.550;2023-07-08T02:55:54;100635.13;;;16.77;100.00
54808;BME280;40708;50.364;7.550;2023-07-08T02:58:20;100627.91;;;16.81;100.00
54808;BME280;40708;50.364;7.550;2023-07-08T03:00:45;100614.19;;;16.96;100.00
54808;BME280;40708;50.364;7.550;2023-07-08T03:03:11;100593.41;;;17.05;100.00
54808;BME280;40708;50.364;7.550;2023-07-08T03:05:36;100585.06;;;17.17;100.00
54808;BME280;40708;50.364;7.550;2023-07-08T03:08:01;100574.09;;;17.28;100.00
54808;BME280;40708;50.364;7.550;2023-07-08T03:10:27;100565.72;;;17.40;100.00
54808;BME280;40708;50.364;7.550;2023-07-08T03:12:52;100566.59;;;17.41;100.00
54808;BME280;40708;50.364;7.550;2023-07-08T03:15:17;100572.03;;;17.38;100.00
54808;BME280;40708;50.364;7.550;2023-07-08T03:17:43;100589.16;;;17.32;100.00
54808;BME280;40708;50.364;7.550;2023-07-08T03:20:09;100614.38;;;17.25;100.00
54808;BME280;40708;50.364;7.550;2023-07-08T03:22:35;100636.03;;;17.16;100.00
54808;BME280;40708;50.364;7.550;2023-07-08T03:25:00;100629.00;;;17.10;100.00
54808;BME280;40708;50.364;7.550;2023-07-08T03:27:26;100636.34;;;17.04;100.00
54808;BME280;40708;50.364;7.550;2023-07-08T03:29:51;100647.13;;;16.99;100.00
54808;BME280;40708;50.364;7.550;2023-07-08T03:32:16;100653.44;;;16.98;100.00
54808;BME280;40708;50.364;7.550;2023-07-08T03:34:41;100650.81;;;16.95;100.00
54808;BME280;40708;50.364;7.550;2023-07-08T03:37:08;100657.03;;;16.97;100.00
54808;BME280;40708;50.364;7.550;2023-07-08T03:39:33;100634.75;;;16.94;100.00
54808;BME280;40708;50.364;7.550;2023-07-08T03:41:59;100647.25;;;16.93;100.00
54808;BME280;40708;50.364;7.550;2023-07-08T03:44:24;100646.28;;;16.97;100.00
54808;BME280;40708;50.364;7.550;2023-07-08T03:46:50;100646.00;;;17.09;100.00
54808;BME280;40708;50.364;7.550;2023-07-08T03:49:20;100632.53;;;17.12;100.00
54808;BME280;40708;50.364;7.550;2023-07-08T03:51:47;100635.22;;;17.12;100.00
54808;BME280;40708;50.364;7.550;2023-07-08T03:54:14;100629.16;;;17.04;100.00
54808;BME280;40708;50.364;7.550;2023-07-08T03:56:39;100637.25;;;17.01;100.00
54808;BME280;40708;50.364;7.550;2023-07-08T03:59:05;100641.84;;;16.96;100.00
54808;BME280;40708;50.364;7.550;2023-07-08T04:01:30;100641.97;;;16.92;100.00
54808;BME280;40708;50.364;7.550;2023-07-08T04:03:57;100646.53;;;16.87;100.00
54808;BME280;40708;50.364;7.550;2023-07-08T04:06:24;100637.66;;;16.85;100.00
54808;BME280;40708;50.364;7.550;2023-07-08T04:08:49;100640.41;;;16.80;100.00
54808;BME280;40708;50.364;7.550;2023-07-08T04:11:20;100648.41;;;16.83;100.00
54808;BME280;40708;50.364;7.550;2023-07-08T04:13:46;100650.00;;;16.92;100.00
54808;BME280;40708;50.364;7.550;2023-07-08T04:16:17;100654.03;;;17.09;100.00
54808;BME280;40708;50.364;7.550;2023-07-08T04:18:43;100659.25;;;17.17;100.00
54808;BME280;40708;50.364;7.550;2023-07-08T04:21:09;100658.88;;;17.32;100.00
54808;BME280;40708;50.364;7.550;2023-07-08T04:23:34;100654.81;;;17.54;100.00
54808;BME280;40708;50.364;7.550;2023-07-08T04:26:00;100643.38;;;17.81;100.00
54808;BME280;40708;50.364;7.550;2023-07-08T04:28:26;100611.47;;;18.03;100.00
54808;BME280;40708;50.364;7.550;2023-07-08T04:30:51;100598.06;;;18.03;100.00
54808;BME280;40708;50.364;7.550;2023-07-08T04:33:16;100603.63;;;17.96;100.00
54808;BME280;40708;50.364;7.550;2023-07-08T04:35:43;100603.72;;;17.93;100.00
54808;BME280;40708;50.364;7.550;2023-07-08T04:38:20;100617.09;;;17.94;100.00
54808;BME280;40708;50.364;7.550;2023-07-08T04:40:50;100609.75;;;18.01;100.00
54808;BME280;40708;50.364;7.550;2023-07-08T04:43:16;100621.25;;;18.06;100.00
54808;BME280;40708;50.364;7.550;2023-07-08T04:45:44;100628.03;;;18.19;100.00
54808;BME280;40708;50.364;7.550;2023-07-08T04:48:14;100633.09;;;18.29;100.00
54808;BME280;40708;50.364;7.550;2023-07-08T04:50:44;100628.97;;;18.50;100.00
54808;BME280;40708;50.364;7.550;2023-07-08T04:53:10;100615.88;;;18.69;100.00
54808;BME280;40708;50.364;7.550;2023-07-08T04:55:38;100613.50;;;18.87;100.00
54808;BME280;40708;50.364;7.550;2023-07-08T04:58:05;100613.19;;;18.98;100.00
54808;BME280;40708;50.364;7.550;2023-07-08T05:00:30;100626.03;;;19.16;100.00
54808;BME280;40708;50.364;7.550;2023-07-08T05:02:56;100614.56;;;19.39;100.00
54808;BME280;40708;50.364;7.550;2023-07-08T05:05:21;100594.13;;;19.59;100.00
54808;BME280;40708;50.364;7.550;2023-07-08T05:07:46;100582.63;;;19.56;100.00
54808;BME280;40708;50.364;7.550;2023-07-08T05:10:12;100586.66;;;19.68;100.00
54808;BME280;40708;50.364;7.550;2023-07-08T05:12:37;100583.88;;;19.71;100.00
54808;BME280;40708;50.364;7.550;2023-07-08T05:15:03;100582.66;;;19.81;100.00
54808;BME280;40708;50.364;7.550;2023-07-08T05:17:29;100566.63;;;19.76;100.00
54808;BME280;40708;50.364;7.550;2023-07-08T05:19:55;100578.19;;;19.80;100.00
54808;BME280;40708;50.364;7.550;2023-07-08T05:22:22;100591.31;;;19.36;100.00
54808;BME280;40708;50.364;7.550;2023-07-08T05:24:51;100577.97;;;20.10;100.00
54808;BME280;40708;50.364;7.550;2023-07-08T05:27:18;100547.25;;;21.09;100.00
54808;BME280;40708;50.364;7.550;2023-07-08T05:29:46;100515.09;;;21.86;100.00
54808;BME280;40708;50.364;7.550;2023-07-08T05:32:11;100515.22;;;21.63;100.00
54808;BME280;40708;50.364;7.550;2023-07-08T05:34:36;100517.81;;;21.45;100.00
54808;BME280;40708;50.364;7.550;2023-07-08T05:37:01;100523.38;;;21.20;100.00
54808;BME280;40708;50.364;7.550;2023-07-08T05:39:27;100530.13;;;20.87;100.00
54808;BME280;40708;50.364;7.550;2023-07-08T05:41:52;100532.31;;;20.99;100.00
54808;BME280;40708;50.364;7.550;2023-07-08T05:44:17;100537.88;;;21.17;100.00
54808;BME280;40708;50.364;7.550;2023-07-08T05:46:42;100526.78;;;21.45;100.00
54808;BME280;40708;50.364;7.550;2023-07-08T05:49:08;100518.91;;;21.61;100.00
54808;BME280;40708;50.364;7.550;2023-07-08T05:51:33;100519.59;;;21.46;100.00
54808;BME280;40708;50.364;7.550;2023-07-08T05:53:59;100509.28;;;21.75;100.00
54808;BME280;40708;50.364;7.550;2023-07-08T05:56:24;100505.34;;;21.62;100.00
54808;BME280;40708;50.364;7.550;2023-07-08T05:58:49;100495.50;;;21.81;100.00
54808;BME280;40708;50.364;7.550;2023-07-08T06:01:14;100508.41;;;21.95;100.00
54808;BME280;40708;50.364;7.550;2023-07-08T06:03:40;100512.16;;;21.51;100.00
54808;BME280;40708;50.364;7.550;2023-07-08T06:06:05;100493.50;;;21.86;100.00
54808;BME280;40708;50.364;7.550;2023-07-08T06:08:31;100483.78;;;22.21;100.00
54808;BME280;40708;50.364;7.550;2023-07-08T06:10:56;100489.69;;;21.90;100.00
54808;BME280;40708;50.364;7.550;2023-07-08T06:13:21;100488.00;;;21.88;100.00
54808;BME280;40708;50.364;7.550;2023-07-08T06:15:47;100478.31;;;22.60;100.00
54808;BME280;40708;50.364;7.550;2023-07-08T06:18:12;100464.16;;;23.78;100.00
54808;BME280;40708;50.364;7.550;2023-07-08T06:20:37;100453.63;;;24.70;100.00
54808;BME280;40708;50.364;7.550;2023-07-08T06:23:03;100458.78;;;25.66;100.00
54808;BME280;40708;50.364;7.550;2023-07-08T06:25:28;100448.22;;;26.74;100.00
54808;BME280;40708;50.364;7.550;2023-07-08T06:27:53;100444.69;;;27.13;96.59
54808;BME280;40708;50.364;7.550;2023-07-08T06:30:19;100451.34;;;27.22;97.27
54808;BME280;40708;50.364;7.550;2023-07-08T06:32:44;100459.22;;;26.99;96.56
54808;BME280;40708;50.364;7.550;2023-07-08T06:35:09;100458.94;;;26.49;93.53
54808;BME280;40708;50.364;7.550;2023-07-08T06:37:34;100465.22;;;25.79;100.00
54808;BME280;40708;50.364;7.550;2023-07-08T06:40:00;100476.09;;;25.79;100.00
54808;BME280;40708;50.364;7.550;2023-07-08T06:42:25;100470.78;;;26.48;100.00
54808;BME280;40708;50.364;7.550;2023-07-08T06:44:51;100472.97;;;27.64;100.00
54808;BME280;40708;50.364;7.550;2023-07-08T06:47:18;100472.25;;;27.48;100.00
54808;BME280;40708;50.364;7.550;2023-07-08T06:49:44;100473.75;;;28.42;90.37
54808;BME280;40708;50.364;7.550;2023-07-08T06:52:10;100460.88;;;29.16;85.55
54808;BME280;40708;50.364;7.550;2023-07-08T06:54:35;100451.50;;;30.01;72.10
54808;BME280;40708;50.364;7.550;2023-07-08T06:57:00;100450.19;;;30.62;62.38
54808;BME280;40708;50.364;7.550;2023-07-08T06:59:26;100466.31;;;30.21;62.27
54808;BME280;40708;50.364;7.550;2023-07-08T07:01:53;100467.22;;;30.65;61.32
54808;BME280;40708;50.364;7.550;2023-07-08T07:04:18;100451.88;;;30.85;59.34
54808;BME280;40708;50.364;7.550;2023-07-08T07:06:43;100455.59;;;31.06;54.18
54808;BME280;40708;50.364;7.550;2023-07-08T07:09:09;100445.88;;;32.07;50.89
54808;BME280;40708;50.364;7.550;2023-07-08T07:11:34;100441.38;;;31.44;47.95
54808;BME280;40708;50.364;7.550;2023-07-08T07:13:59;100441.19;;;31.57;49.50
54808;BME280;40708;50.364;7.550;2023-07-08T07:16:24;100440.00;;;32.12;47.25
54808;BME280;40708;50.364;7.550;2023-07-08T07:18:50;100443.78;;;32.00;46.83
54808;BME280;40708;50.364;7.550;2023-07-08T07:21:17;100451.69;;;32.14;45.46
54808;BME280;40708;50.364;7.550;2023-07-08T07:23:42;100457.31;;;32.42;44.50
54808;BME280;40708;50.364;7.550;2023-07-08T07:26:07;100449.56;;;32.87;42.95
54808;BME280;40708;50.364;7.550;2023-07-08T07:28:33;100454.69;;;32.31;43.86
54808;BME280;40708;50.364;7.550;2023-07-08T07:30:59;100466.59;;;32.21;43.81
54808;BME280;40708;50.364;7.550;2023-07-08T07:33:25;100470.91;;;32.14;43.57
54808;BME280;40708;50.364;7.550;2023-07-08T07:35:50;100465.66;;;32.62;42.88
54808;BME280;40708;50.364;7.550;2023-07-08T07:38:15;100467.34;;;31.29;44.60
54808;BME280;40708;50.364;7.550;2023-07-08T07:40:41;100463.13;;;32.49;43.91
54808;BME280;40708;50.364;7.550;2023-07-08T07:43:07;100463.84;;;32.72;42.40
54808;BME280;40708;50.364;7.550;2023-07-08T07:45:32;100459.94;;;32.84;43.04
54808;BME280;40708;50.364;7.550;2023-07-08T07:47:57;100466.97;;;32.67;44.18
54808;BME280;40708;50.364;7.550;2023-07-08T07:50:23;100455.03;;;31.97;44.08
54808;BME280;40708;50.364;7.550;2023-07-08T07:52:48;100456.09;;;32.26;45.40
54808;BME280;40708;50.364;7.550;2023-07-08T07:55:14;100443.69;;;32.01;44.27
54808;BME280;40708;50.364;7.550;2023-07-08T07:57:39;100439.47;;;31.45;47.66
54808;BME280;40708;50.364;7.550;2023-07-08T08:02:35;100452.97;;;31.89;47.50
54808;BME280;40708;50.364;7.550;2023-07-08T08:05:00;100445.78;;;32.18;46.44
54808;BME280;40708;50.364;7.550;2023-07-08T08:07:26;100435.94;;;32.76;43.49
54808;BME280;40708;50.364;7.550;2023-07-08T08:09:51;100441.72;;;32.43;43.56
54808;BME280;40708;50.364;7.550;2023-07-08T08:12:16;100436.31;;;33.12;43.06
54808;BME280;40708;50.364;7.550;2023-07-08T08:14:41;100437.91;;;33.72;41.88
54808;BME280;40708;50.364;7.550;2023-07-08T08:17:07;100434.84;;;35.22;39.38
54808;BME280;40708;50.364;7.550;2023-07-08T08:19:32;100429.19;;;36.02;37.74
54808;BME280;40708;50.364;7.550;2023-07-08T08:21:57;100443.84;;;35.85;37.52
54808;BME280;40708;50.364;7.550;2023-07-08T08:24:23;100437.75;;;35.56;38.13
54808;BME280;40708;50.364;7.550;2023-07-08T08:26:48;100442.19;;;35.92;37.92
54808;BME280;40708;50.364;7.550;2023-07-08T08:29:14;100445.75;;;36.02;37.79
54808;BME280;40708;50.364;7.550;2023-07-08T08:31:39;100438.56;;;36.43;37.14
54808;BME280;40708;50.364;7.550;2023-07-08T08:34:04;100445.78;;;35.14;38.77
54808;BME280;40708;50.364;7.550;2023-07-08T08:36:29;100429.84;;;34.26;39.45
54808;BME280;40708;50.364;7.550;2023-07-08T08:38:55;100421.00;;;34.59;39.64
54808;BME280;40708;50.364;7.550;2023-07-08T08:41:28;100420.22;;;34.94;39.06
54808;BME280;40708;50.364;7.550;2023-07-08T08:43:54;100425.84;;;35.38;38.88
54808;BME280;40708;50.364;7.550;2023-07-08T08:51:38;100433.41;;;36.14;37.75
54808;BME280;40708;50.364;7.550;2023-07-08T08:54:04;100435.56;;;36.62;36.29
54808;BME280;40708;50.364;7.550;2023-07-08T08:59:57;100446.81;;;36.35;34.43
54808;BME280;40708;50.364;7.550;2023-07-08T09:02:37;100443.47;;;35.80;33.88
54808;BME280;40708;50.364;7.550;2023-07-08T09:05:07;100442.66;;;35.62;34.74
54808;BME280;40708;50.364;7.550;2023-07-08T09:10:39;100435.38;;;35.61;34.00
54808;BME280;40708;50.364;7.550;2023-07-08T09:13:06;100436.88;;;35.20;33.39
54808;BME280;40708;50.364;7.550;2023-07-08T09:15:32;100432.16;;;35.12;33.03
54808;BME280;40708;50.364;7.550;2023-07-08T09:18:03;100424.00;;;34.66;34.21
54808;BME280;40708;50.364;7.550;2023-07-08T09:20:35;100441.47;;;34.57;34.38
54808;BME280;40708;50.364;7.550;2023-07-08T09:23:18;100430.00;;;34.61;33.46
54808;BME280;40708;50.364;7.550;2023-07-08T09:25:59;100439.03;;;34.07;34.06
54808;BME280;40708;50.364;7.550;2023-07-08T09:28:38;100434.19;;;34.56;34.54
54808;BME280;40708;50.364;7.550;2023-07-08T09:31:06;100428.97;;;34.26;35.42
54808;BME280;40708;50.364;7.550;2023-07-08T09:33:32;100427.59;;;34.76;34.32
54808;BME280;40708;50.364;7.550;2023-07-08T09:35:57;100421.13;;;34.85;33.82
54808;BME280;40708;50.364;7.550;2023-07-08T09:38:22;100427.38;;;34.60;33.90
54808;BME280;40708;50.364;7.550;2023-07-08T09:40:50;100420.03;;;34.41;34.17
54808;BME280;40708;50.364;7.550;2023-07-08T09:43:34;100417.16;;;34.43;33.86
54808;BME280;40708;50.364;7.550;2023-07-08T09:46:01;100429.59;;;34.47;34.52
54808;BME280;40708;50.364;7.550;2023-07-08T09:48:34;100416.22;;;34.52;34.34
54808;BME280;40708;50.364;7.550;2023-07-08T09:50:59;100417.09;;;34.80;33.63
54808;BME280;40708;50.364;7.550;2023-07-08T09:53:25;100412.03;;;34.48;34.62
54808;BME280;40708;50.364;7.550;2023-07-08T09:55:52;100411.38;;;34.91;34.49
54808;BME280;40708;50.364;7.550;2023-07-08T09:58:23;100399.09;;;35.03;33.93
54808;BME280;40708;50.364;7.550;2023-07-08T10:00:54;100407.63;;;35.09;35.11
54808;BME280;40708;50.364;7.550;2023-07-08T10:03:23;100407.34;;;34.85;34.96
54808;BME280;40708;50.364;7.550;2023-07-08T10:05:51;100404.66;;;34.48;35.57
54808;BME280;40708;50.364;7.550;2023-07-08T10:08:19;100404.03;;;34.82;35.93
54808;BME280;40708;50.364;7.550;2023-07-08T10:10:47;100404.84;;;34.92;35.36
54808;BME280;40708;50.364;7.550;2023-07-08T10:13:38;100411.72;;;35.05;35.50
54808;BME280;40708;50.364;7.550;2023-07-08T10:16:14;100408.97;;;35.23;35.62
54808;BME280;40708;50.364;7.550;2023-07-08T10:18:40;100407.47;;;34.66;35.89
54808;BME280;40708;50.364;7.550;2023-07-08T10:26:30;100407.75;;;34.36;36.69
54808;BME280;40708;50.364;7.550;2023-07-08T10:29:23;100404.44;;;34.32;36.36
54808;BME280;40708;50.364;7.550;2023-07-08T10:32:10;100394.13;;;34.07;36.45
54808;BME280;40708;50.364;7.550;2023-07-08T10:37:22;100403.38;;;33.96;37.29
54808;BME280;40708;50.364;7.550;2023-07-08T10:45:43;100404.66;;;34.11;39.13
54808;BME280;40708;50.364;7.550;2023-07-08T10:48:17;100411.88;;;33.57;39.33
54808;BME280;40708;50.364;7.550;2023-07-08T10:51:16;100405.34;;;33.58;40.36
54808;BME280;40708;50.364;7.550;2023-07-08T10:54:18;100405.63;;;33.45;40.31
54808;BME280;40708;50.364;7.550;2023-07-08T11:02:39;100396.22;;;33.38;40.30
54808;BME280;40708;50.364;7.550;2023-07-08T11:05:19;100406.63;;;33.44;40.35
54808;BME280;40708;50.364;7.550;2023-07-08T11:07:55;100409.94;;;33.76;40.52
54808;BME280;40708;50.364;7.550;2023-07-08T11:10:29;100405.91;;;33.71;40.71
54808;BME280;40708;50.364;7.550;2023-07-08T11:13:06;100405.69;;;34.01;39.38
54808;BME280;40708;50.364;7.550;2023-07-08T11:16:02;100404.50;;;34.03;39.34
54808;BME280;40708;50.364;7.550;2023-07-08T11:18:47;100406.31;;;33.85;39.80
54808;BME280;40708;50.364;7.550;2023-07-08T11:21:21;100399.16;;;34.02;39.87
54808;BME280;40708;50.364;7.550;2023-07-08T11:24:03;100409.94;;;33.86;40.29
54808;BME280;40708;50.364;7.550;2023-07-08T11:26:50;100410.41;;;33.33;40.67
54808;BME280;40708;50.364;7.550;2023-07-08T11:29:20;100403.75;;;33.17;41.37
54808;BME280;40708;50.364;7.550;2023-07-08T11:31:47;100410.13;;;33.36;41.90
54808;BME280;40708;50.364;7.550;2023-07-08T11:34:15;100403.63;;;33.37;42.62
54808;BME280;40708;50.364;7.550;2023-07-08T11:36:42;100408.94;;;33.77;42.00
54808;BME280;40708;50.364;7.550;2023-07-08T11:39:32;100388.09;;;33.46;41.96
54808;BME280;40708;50.364;7.550;2023-07-08T11:42:41;100394.72;;;33.91;42.34
54808;BME280;40708;50.364;7.550;2023-07-08T11:47:46;100404.44;;;33.76;42.54
54808;BME280;40708;50.364;7.550;2023-07-08T11:50:31;100396.78;;;33.70;42.89
54808;BME280;40708;50.364;7.550;2023-07-08T11:53:00;100399.44;;;34.18;42.70
54808;BME280;40708;50.364;7.550;2023-07-08T11:55:36;100395.81;;;34.18;42.10
54808;BME280;40708;50.364;7.550;2023-07-08T11:58:06;100389.03;;;34.02;41.93
54808;BME280;40708;50.364;7.550;2023-07-08T12:00:33;100385.56;;;34.37;42.17
54808;BME280;40708;50.364;7.550;2023-07-08T12:03:04;100383.13;;;34.34;42.47
54808;BME280;40708;50.364;7.550;2023-07-08T12:05:41;100389.00;;;34.12;43.09
54808;BME280;40708;50.364;7.550;2023-07-08T12:08:14;100389.34;;;33.99;43.72
54808;BME280;40708;50.364;7.550;2023-07-08T12:10:51;100379.69;;;34.23;42.30
54808;BME280;40708;50.364;7.550;2023-07-08T12:13:19;100381.19;;;33.98;43.32
54808;BME280;40708;50.364;7.550;2023-07-08T12:15:46;100379.56;;;33.68;44.08
54808;BME280;40708;50.364;7.550;2023-07-08T12:20:46;100374.53;;;34.10;45.33
54808;BME280;40708;50.364;7.550;2023-07-08T12:23:15;100359.84;;;34.46;45.19
54808;BME280;40708;50.364;7.550;2023-07-08T12:25:40;100365.34;;;34.46;45.09
54808;BME280;40708;50.364;7.550;2023-07-08T12:28:05;100362.47;;;34.75;44.44
54808;BME280;40708;50.364;7.550;2023-07-08T12:30:32;100367.44;;;34.89;44.07
54808;BME280;40708;50.364;7.550;2023-07-08T12:32:59;100357.75;;;35.03;42.84
54808;BME280;40708;50.364;7.550;2023-07-08T12:35:28;100356.38;;;35.42;42.50
54808;BME280;40708;50.364;7.550;2023-07-08T12:37:58;100361.38;;;35.39;42.33
54808;BME280;40708;50.364;7.550;2023-07-08T12:40:26;100352.66;;;35.08;42.53
54808;BME280;40708;50.364;7.550;2023-07-08T12:42:51;100342.91;;;35.04;41.67
54808;BME280;40708;50.364;7.550;2023-07-08T12:45:20;100342.16;;;34.76;42.93
54808;BME280;40708;50.364;7.550;2023-07-08T12:47:46;100341.97;;;34.95;42.48
54808;BME280;40708;50.364;7.550;2023-07-08T12:50:13;100339.00;;;35.06;42.67
54808;BME280;40708;50.364;7.550;2023-07-08T12:52:39;100349.03;;;35.25;41.73
54808;BME280;40708;50.364;7.550;2023-07-08T12:55:05;100344.41;;;35.34;41.93
54808;BME280;40708;50.364;7.550;2023-07-08T12:57:33;100344.50;;;35.59;41.78
54808;BME280;40708;50.364;7.550;2023-07-08T12:59:59;100342.97;;;35.65;40.39
54808;BME280;40708;50.364;7.550;2023-07-08T13:02:25;100334.78;;;35.55;40.59
54808;BME280;40708;50.364;7.550;2023-07-08T13:04:57;100334.53;;;35.66;40.67
54808;BME280;40708;50.364;7.550;2023-07-08T13:07:34;100333.56;;;35.75;40.24
54808;BME280;40708;50.364;7.550;2023-07-08T13:10:00;100328.78;;;36.11;39.29
54808;BME280;40708;50.364;7.550;2023-07-08T13:12:27;100325.81;;;36.05;39.75
54808;BME280;40708;50.364;7.550;2023-07-08T13:14:54;100328.13;;;35.92;40.15
54808;BME280;40708;50.364;7.550;2023-07-08T13:17:21;100326.75;;;36.21;39.74
54808;BME280;40708;50.364;7.550;2023-07-08T13:19:48;100316.06;;;36.26;38.93
54808;BME280;40708;50.364;7.550;2023-07-08T13:22:18;100328.75;;;36.03;39.84
54808;BME280;40708;50.364;7.550;2023-07-08T13:24:44;100319.09;;;35.56;39.73
54808;BME280;40708;50.364;7.550;2023-07-08T13:27:29;100325.28;;;35.14;40.42
54808;BME280;40708;50.364;7.550;2023-07-08T13:29:56;100329.63;;;35.35;39.81
54808;BME280;40708;50.364;7.550;2023-07-08T13:32:30;100327.28;;;35.48;40.08
54808;BME280;40708;50.364;7.550;2023-07-08T13:34:56;100320.91;;;35.47;40.04